Terminal Aerodrome Forecast
Issued by NWS

Home | Current Version | Previous Version | Text Only | Print | Product List | Glossary On
Versions: 1 2 3 4 5 6 7 8 9 10 11 12 13 14
000
FTUS41 KCAR 160500
TAFBHB
TAF
KBHB 160523Z 1606/1706 23004KT P6SM SCT050 BKN110
     FM161300 20008KT P6SM VCSH OVC040
     FM162000 20007KT P6SM BKN045
     FM170000 VRB03KT P6SM FEW050 SCT110
     FM170300 VRB03KT 3SM BR SCT250
      AMD LTD TO CLD VIS AND WIND=

USA.gov is the U.S. government's official web portal to all federal, state and local government web resources and services.